Time;durP1;ratioP1;P1;durP2;ratioP2;P2;SDS_P1;SDS_P2;PMS_P1;PMS_P2;Temp;Humidity;BMP_temperature;BMP_pressure;BME280_temperature;BME280_humidity;BME280_pressure;Samples;Min_cycle;Max_cycle;Signal;HPM_P1;HPM_P2
2022/04/24 00:00:16;;;;;;;;;;;;;;;;;;1036305;28;3548;-51
2022/04/24 00:01:06;;;;;;;;;;;;;;;;;;1037003;28;3829;-54
2022/04/24 00:01:37;;;;;;;;;;;;;;;;;;1040222;28;4075;-51
2022/04/24 00:02:11;;;;;;;;;;;;;;;;;;1039825;28;3671;-50
2022/04/24 00:02:41;;;;;;;;;;;;;;;;;;1039447;28;4433;-53
2022/04/24 00:03:12;;;;;;;;;;;;;;;;;;1039358;28;3625;-50
2022/04/24 00:03:42;;;;;;;;;;;;;;;;;;1036294;28;4064;-52
2022/04/24 00:04:12;;;;;;;;;;;;;;;;;;1035951;28;3719;-52
2022/04/24 00:04:43;;;;;;;;;;;;;;;;;;1036078;28;3862;-51
2022/04/24 00:05:13;;;;;;;;;;;;;;;;;;1036335;28;3606;-54
2022/04/24 00:05:43;;;;;;;;;;;;;;;;;;1036968;28;4034;-50
2022/04/24 00:06:13;;;;;;;;;;;;;;;;;;1037579;28;3372;-50
2022/04/24 00:06:46;;;;;;;;;;;;;;;;;;1036976;28;4377;-53
2022/04/24 00:07:17;;;;;;;;;;;;;;;;;;1037266;28;3351;-53
2022/04/24 00:07:47;;;;;;;;;;;;;;;;;;1033740;28;4235;-49
2022/04/24 00:08:17;;;;;;;;;;;;;;;;;;1034888;28;3364;-53
2022/04/24 00:08:48;;;;;;;;;;;;;;;;;;1037899;28;4383;-53
2022/04/24 00:09:18;;;;;;;;;;;;;;;;;;1038949;28;3591;-51
2022/04/24 00:09:49;;;;;;;;;;;;;;;;;;1036479;28;4207;-49
2022/04/24 00:10:19;;;;;;;;;;;;;;;;;;1037469;28;3442;-52
2022/04/24 00:10:50;;;;;;;;;;;;;;;;;;1036597;28;4655;-50
2022/04/24 00:11:20;;;;;;;;;;;;;;;;;;1037324;28;3389;-51
2022/04/24 00:11:51;;;;;;;;;;;;;;;;;;1037498;28;3880;-52
2022/04/24 00:12:21;;;;;;;;;;;;;;;;;;1036992;28;3505;-48
2022/04/24 00:12:51;;;;;;;;;;;;;;;;;;1036425;28;4359;-53
2022/04/24 00:13:23;;;;;;;;;;;;;;;;;;1036640;28;4507;-51
2022/04/24 00:13:53;;;;;;;;;;;;;;;;;;1036285;28;4407;-51
2022/04/24 00:14:24;;;;;;;;;;;;;;;;;;1035951;28;3470;-51
2022/04/24 00:14:54;;;;;;;;;;;;;;;;;;1037052;28;4569;-49
2022/04/24 00:15:24;;;;;;;;;;;;;;;;;;1036081;28;3754;-52
2022/04/24 00:15:54;;;;;;;;;;;;;;;;;;1037090;28;4406;-49
2022/04/24 00:16:25;;;;;;;;;;;;;;;;;;1036673;28;3761;-53
2022/04/24 00:16:55;;;;;;;;;;;;;;;;;;1036781;28;3944;-49
2022/04/24 00:17:25;;;;;;;;;;;;;;;;;;1037249;28;3590;-54
2022/04/24 00:17:55;;;;;;;;;;;;;;;;;;1035842;28;4091;-49
2022/04/24 00:18:26;;;;;;;;;;;;;;;;;;1036583;28;3477;-51
2022/04/24 00:18:56;;;;;;;;;;;;;;;;;;1036464;28;4030;-50
2022/04/24 00:19:26;;;;;;;;;;;;;;;;;;1036126;28;3530;-50
2022/04/24 00:19:57;;;;;;;;;;;;;;;;;;1036528;28;4062;-53
2022/04/24 00:20:27;;;;;;;;;;;;;;;;;;1037494;28;3487;-51
2022/04/24 00:20:57;;;;;;;;;;;;;;;;;;1036741;28;4423;-50
2022/04/24 00:21:28;;;;;;;;;;;;;;;;;;1036575;28;3324;-50
2022/04/24 00:21:58;;;;;;;;;;;;;;;;;;1037420;28;4358;-49
2022/04/24 00:22:29;;;;;;;;;;;;;;;;;;1039338;28;3428;-48
2022/04/24 00:22:59;;;;;;;;;;;;;;;;;;1035959;28;4423;-49
2022/04/24 00:23:29;;;;;;;;;;;;;;;;;;1036750;28;3392;-51
2022/04/24 00:23:59;;;;;;;;;;;;;;;;;;1037537;28;3859;-51
2022/04/24 00:24:32;;;;;;;;;;;;;;;;;;1036522;28;3903;-51
2022/04/24 00:25:02;;;;;;;;;;;;;;;;;;1036054;28;3740;-52
2022/04/24 00:25:33;;;;;;;;;;;;;;;;;;1036804;28;3367;-51
2022/04/24 00:26:03;;;;;;;;;;;;;;;;;;1036852;28;4446;-48
2022/04/24 00:26:33;;;;;;;;;;;;;;;;;;1037821;28;3403;-52
2022/04/24 00:27:03;;;;;;;;;;;;;;;;;;1037436;28;3948;-48
2022/04/24 00:27:34;;;;;;;;;;;;;;;;;;1037311;28;3813;-49
2022/04/24 00:28:04;;;;;;;;;;;;;;;;;;1036410;28;4014;-52
2022/04/24 00:28:35;;;;;;;;;;;;;;;;;;1036466;28;3363;-49
2022/04/24 00:29:05;;;;;;;;;;;;;;;;;;1036764;28;4366;-50
2022/04/24 00:29:36;;;;;;;;;;;;;;;;;;1036438;28;3829;-52
2022/04/24 00:30:06;;;;;;;;;;;;;;;;;;1033762;28;3806;-54
2022/04/24 00:30:37;;;;;;;;;;;;;;;;;;1034614;28;3356;-53
2022/04/24 00:31:07;;;;;;;;;;;;;;;;;;1032673;28;16810;-52
2022/04/24 00:31:37;;;;;;;;;;;;;;;;;;1033924;28;4119;-49
2022/04/24 00:32:08;;;;;;;;;;;;;;;;;;1036034;28;3556;-49
2022/04/24 00:32:38;;;;;;;;;;;;;;;;;;1035733;28;3889;-53
2022/04/24 00:33:08;;;;;;;;;;;;;;;;;;1035941;28;3652;-48
2022/04/24 00:33:38;;;;;;;;;;;;;;;;;;1037118;28;4407;-49
2022/04/24 00:34:09;;;;;;;;;;;;;;;;;;1034121;28;3510;-54
2022/04/24 00:34:39;;;;;;;;;;;;;;;;;;1036104;28;4061;-47
2022/04/24 00:35:09;;;;;;;;;;;;;;;;;;1032887;28;3480;-53
2022/04/24 00:35:39;;;;;;;;;;;;;;;;;;1032222;28;3873;-52
2022/04/24 00:36:09;;;;;;;;;;;;;;;;;;1033126;28;3673;-51
2022/04/24 00:36:40;;;;;;;;;;;;;;;;;;1033558;28;3799;-50
2022/04/24 00:37:10;;;;;;;;;;;;;;;;;;1038366;28;3770;-48
2022/04/24 00:37:40;;;;;;;;;;;;;;;;;;1036983;28;4281;-49
2022/04/24 00:38:11;;;;;;;;;;;;;;;;;;1035118;28;4427;-51
2022/04/24 00:38:41;;;;;;;;;;;;;;;;;;1029976;28;4266;-51
2022/04/24 00:39:11;;;;;;;;;;;;;;;;;;1031286;28;3504;-50
2022/04/24 00:39:42;;;;;;;;;;;;;;;;;;1030169;28;4586;-51
2022/04/24 00:40:12;;;;;;;;;;;;;;;;;;1037950;28;3450;-50
2022/04/24 00:40:45;;;;;;;;;;;;;;;;;;1035046;28;4115;-50
2022/04/24 00:41:15;;;;;;;;;;;;;;;;;;1038151;28;4186;-49
2022/04/24 00:41:47;;;;;;;;;;;;;;;;;;1036638;28;3820;-53
2022/04/24 00:42:18;;;;;;;;;;;;;;;;;;1037066;28;3578;-53
2022/04/24 00:42:49;;;;;;;;;;;;;;;;;;1036947;28;3958;-50
2022/04/24 00:43:19;;;;;;;;;;;;;;;;;;1036796;28;3724;-51
2022/04/24 00:43:52;;;;;;;;;;;;;;;;;;1036503;28;4445;-50
2022/04/24 00:44:23;;;;;;;;;;;;;;;;;;1035065;28;3706;-49
2022/04/24 00:44:53;;;;;;;;;;;;;;;;;;1036311;28;4052;-50
2022/04/24 00:45:24;;;;;;;;;;;;;;;;;;1036932;28;5085;-52
2022/04/24 00:45:59;;;;;;;;;;;;;;;;;;1036389;28;4030;-50
2022/04/24 00:46:42;;;;;;;;;;;;;;;;;;1033200;28;3718;-50
2022/04/24 00:47:19;;;;;;;;;;;;;;;;;;1036230;28;4055;-52
2022/04/24 00:47:50;;;;;;;;;;;;;;;;;;1036419;28;5739;-51
2022/04/24 00:48:20;;;;;;;;;;;;;;;;;;1036929;28;3389;-52
2022/04/24 00:48:57;;;;;;;;;;;;;;;;;;1036249;28;4029;-50
2022/04/24 00:49:41;;;;;;;;;;;;;;;;;;1037810;28;3541;-53
2022/04/24 00:50:18;;;;;;;;;;;;;;;;;;1040716;28;4218;-51
2022/04/24 00:50:48;;;;;;;;;;;;;;;;;;1040968;28;3804;-50
2022/04/24 00:51:18;;;;;;;;;;;;;;;;;;1039644;28;3639;-53
2022/04/24 00:51:49;;;;;;;;;;;;;;;;;;1039453;28;4212;-50
2022/04/24 00:52:20;;;;;;;;;;;;;;;;;;1039770;28;3483;-51
2022/04/24 00:52:50;;;;;;;;;;;;;;;;;;1038904;28;4051;-50
2022/04/24 00:53:20;;;;;;;;;;;;;;;;;;1041300;28;5780;-47
2022/04/24 00:53:50;;;;;;;;;;;;;;;;;;1041000;28;4028;-50
2022/04/24 00:54:21;;;;;;;;;;;;;;;;;;1037614;28;3382;-52
2022/04/24 00:54:51;;;;;;;;;;;;;;;;;;1038684;28;3864;-50
2022/04/24 00:55:23;;;;;;;;;;;;;;;;;;1038023;28;3578;-53
2022/04/24 00:55:54;;;;;;;;;;;;;;;;;;1033847;28;3843;-48
2022/04/24 00:56:30;;;;;;;;;;;;;;;;;;1037055;28;3604;-51
2022/04/24 00:57:01;;;;;;;;;;;;;;;;;;1033012;28;5127;-48
2022/04/24 00:57:31;;;;;;;;;;;;;;;;;;1034102;28;5969;-48
2022/04/24 00:58:02;;;;;;;;;;;;;;;;;;1036857;28;4023;-51
2022/04/24 00:58:32;;;;;;;;;;;;;;;;;;1037277;28;3490;-48
2022/04/24 00:59:04;;;;;;;;;;;;;;;;;;1040144;28;3983;-51
2022/04/24 00:59:34;;;;;;;;;;;;;;;;;;1037900;28;3878;-48
2022/04/24 01:00:05;;;;;;;;;;;;;;;;;;1035889;28;4134;-51
2022/04/24 01:00:38;;;;;;;;;;;;;;;;;;1036226;28;3539;-48
2022/04/24 01:01:09;;;;;;;;;;;;;;;;;;1034919;28;3839;-52
2022/04/24 01:01:40;;;;;;;;;;;;;;;;;;1039801;28;4116;-49
2022/04/24 01:02:11;;;;;;;;;;;;;;;;;;1039347;28;3654;-49
2022/04/24 01:02:41;;;;;;;;;;;;;;;;;;1038344;28;3962;-53
2022/04/24 01:03:14;;;;;;;;;;;;;;;;;;1038836;28;3426;-51
2022/04/24 01:03:44;;;;;;;;;;;;;;;;;;1039052;28;3784;-49
2022/04/24 01:04:16;;;;;;;;;;;;;;;;;;1040877;28;3580;-48
2022/04/24 01:04:46;;;;;;;;;;;;;;;;;;1039912;28;3884;-49
2022/04/24 01:05:18;;;;;;;;;;;;;;;;;;1040777;28;4113;-50
2022/04/24 01:05:48;;;;;;;;;;;;;;;;;;1041029;28;3829;-52
2022/04/24 01:06:18;;;;;;;;;;;;;;;;;;1039453;28;3728;-50
2022/04/24 01:06:48;;;;;;;;;;;;;;;;;;1039792;28;3879;-50
2022/04/24 01:07:19;;;;;;;;;;;;;;;;;;1039056;28;3465;-52
2022/04/24 01:07:49;;;;;;;;;;;;;;;;;;1036394;28;3973;-50
2022/04/24 01:08:19;;;;;;;;;;;;;;;;;;1036688;28;3625;-51
2022/04/24 01:08:49;;;;;;;;;;;;;;;;;;1036721;28;4076;-51
2022/04/24 01:09:20;;;;;;;;;;;;;;;;;;1036547;28;3353;-52
2022/04/24 01:09:51;;;;;;;;;;;;;;;;;;1040711;28;3757;-51
2022/04/24 01:10:21;;;;;;;;;;;;;;;;;;1040819;28;3873;-50
2022/04/24 01:10:51;;;;;;;;;;;;;;;;;;1041518;28;4579;-52
2022/04/24 01:11:21;;;;;;;;;;;;;;;;;;1041357;28;4048;-50
2022/04/24 01:11:52;;;;;;;;;;;;;;;;;;1039656;28;4373;-48
2022/04/24 01:12:23;;;;;;;;;;;;;;;;;;1040604;28;3390;-52
2022/04/24 01:12:53;;;;;;;;;;;;;;;;;;1040123;28;3859;-49
2022/04/24 01:13:23;;;;;;;;;;;;;;;;;;1039896;28;4061;-51
2022/04/24 01:13:54;;;;;;;;;;;;;;;;;;1038364;28;4782;-49
2022/04/24 01:14:25;;;;;;;;;;;;;;;;;;1040114;28;3590;-51
2022/04/24 01:14:55;;;;;;;;;;;;;;;;;;1033942;28;4041;-53
2022/04/24 01:15:25;;;;;;;;;;;;;;;;;;1035368;28;3690;-53
2022/04/24 01:15:56;;;;;;;;;;;;;;;;;;1034941;28;4029;-53
2022/04/24 01:16:26;;;;;;;;;;;;;;;;;;1036518;28;3479;-52
2022/04/24 01:16:57;;;;;;;;;;;;;;;;;;1040193;28;4216;-52
2022/04/24 01:17:28;;;;;;;;;;;;;;;;;;1041198;28;4186;-49
2022/04/24 01:17:59;;;;;;;;;;;;;;;;;;1039283;28;3923;-53
2022/04/24 01:18:30;;;;;;;;;;;;;;;;;;1036629;28;3660;-52
2022/04/24 01:19:01;;;;;;;;;;;;;;;;;;1036576;28;4186;-50
2022/04/24 01:19:32;;;;;;;;;;;;;;;;;;1038341;28;3467;-49
2022/04/24 01:20:02;;;;;;;;;;;;;;;;;;1041130;28;4053;-51
2022/04/24 01:20:34;;;;;;;;;;;;;;;;;;1043732;28;3700;-51
2022/04/24 01:21:08;;;;;;;;;;;;;;;;;;1040773;28;3922;-51
2022/04/24 01:21:41;;;;;;;;;;;;;;;;;;1036551;28;4360;-48
2022/04/24 01:22:11;;;;;;;;;;;;;;;;;;1036369;28;3713;-50
2022/04/24 01:22:41;;;;;;;;;;;;;;;;;;1036193;28;3844;-53
2022/04/24 01:23:13;;;;;;;;;;;;;;;;;;1041168;28;3402;-50
2022/04/24 01:23:43;;;;;;;;;;;;;;;;;;1040216;28;4275;-53
2022/04/24 01:24:15;;;;;;;;;;;;;;;;;;1040144;28;3857;-48
2022/04/24 01:24:45;;;;;;;;;;;;;;;;;;1039007;28;4452;-51
2022/04/24 01:25:16;;;;;;;;;;;;;;;;;;1040370;28;3380;-53
2022/04/24 01:25:46;;;;;;;;;;;;;;;;;;1039182;28;3789;-53
2022/04/24 01:26:16;;;;;;;;;;;;;;;;;;1040634;28;3663;-50
2022/04/24 01:26:46;;;;;;;;;;;;;;;;;;1041155;28;3869;-49
2022/04/24 01:27:17;;;;;;;;;;;;;;;;;;1040554;28;3348;-48
2022/04/24 01:27:47;;;;;;;;;;;;;;;;;;1040060;28;5689;-53
2022/04/24 01:28:18;;;;;;;;;;;;;;;;;;1040196;28;3809;-52
2022/04/24 01:28:48;;;;;;;;;;;;;;;;;;1041560;28;4025;-52
2022/04/24 01:29:19;;;;;;;;;;;;;;;;;;1039354;28;3469;-49
2022/04/24 01:29:49;;;;;;;;;;;;;;;;;;1039924;28;3868;-47
2022/04/24 01:30:19;;;;;;;;;;;;;;;;;;1040692;28;3586;-51
2022/04/24 01:30:50;;;;;;;;;;;;;;;;;;1040524;28;3821;-52
2022/04/24 01:31:20;;;;;;;;;;;;;;;;;;1040302;28;3626;-53
2022/04/24 01:31:50;;;;;;;;;;;;;;;;;;1037423;28;3786;-50
2022/04/24 01:32:21;;;;;;;;;;;;;;;;;;1038395;28;3666;-48
2022/04/24 01:32:51;;;;;;;;;;;;;;;;;;1036927;28;3951;-53
2022/04/24 01:33:21;;;;;;;;;;;;;;;;;;1038457;28;3444;-52
2022/04/24 01:33:51;;;;;;;;;;;;;;;;;;1039488;28;4419;-51
2022/04/24 01:34:22;;;;;;;;;;;;;;;;;;1041037;28;3521;-49
2022/04/24 01:34:52;;;;;;;;;;;;;;;;;;1040004;28;4043;-49
2022/04/24 01:35:23;;;;;;;;;;;;;;;;;;1037343;28;3606;-50
2022/04/24 01:35:53;;;;;;;;;;;;;;;;;;1035360;28;4403;-48
2022/04/24 01:36:23;;;;;;;;;;;;;;;;;;1036965;28;3770;-50
2022/04/24 01:36:53;;;;;;;;;;;;;;;;;;1036440;28;4449;-52
2022/04/24 01:37:24;;;;;;;;;;;;;;;;;;1040984;28;3418;-48
2022/04/24 01:37:56;;;;;;;;;;;;;;;;;;1039730;28;4558;-52
2022/04/24 01:38:28;;;;;;;;;;;;;;;;;;1034816;28;6102;-52
2022/04/24 01:38:59;;;;;;;;;;;;;;;;;;1033250;28;3870;-52
2022/04/24 01:39:29;;;;;;;;;;;;;;;;;;1033942;28;3572;-49
2022/04/24 01:39:59;;;;;;;;;;;;;;;;;;1033857;28;4247;-53
2022/04/24 01:40:30;;;;;;;;;;;;;;;;;;1037240;28;3852;-53
2022/04/24 01:41:00;;;;;;;;;;;;;;;;;;1040703;28;4533;-53
2022/04/24 01:41:31;;;;;;;;;;;;;;;;;;1040400;28;3654;-51
2022/04/24 01:42:01;;;;;;;;;;;;;;;;;;1040289;28;4236;-50
2022/04/24 01:42:31;;;;;;;;;;;;;;;;;;1040621;28;3588;-52
2022/04/24 01:43:02;;;;;;;;;;;;;;;;;;1040279;28;4142;-53
2022/04/24 01:43:32;;;;;;;;;;;;;;;;;;1040701;28;3419;-48
2022/04/24 01:44:02;;;;;;;;;;;;;;;;;;1039617;28;4011;-50
2022/04/24 01:44:33;;;;;;;;;;;;;;;;;;1041600;28;4500;-49
2022/04/24 01:45:04;;;;;;;;;;;;;;;;;;1040477;28;4747;-49
2022/04/24 01:45:34;;;;;;;;;;;;;;;;;;1041051;28;3423;-49
2022/04/24 01:46:05;;;;;;;;;;;;;;;;;;1040883;28;4202;-50
2022/04/24 01:46:35;;;;;;;;;;;;;;;;;;1039689;28;3813;-52
2022/04/24 01:47:05;;;;;;;;;;;;;;;;;;1038875;28;4212;-50
2022/04/24 01:47:36;;;;;;;;;;;;;;;;;;1039604;28;3387;-52
2022/04/24 01:48:06;;;;;;;;;;;;;;;;;;1039323;28;3814;-49
2022/04/24 01:48:36;;;;;;;;;;;;;;;;;;1040190;28;3407;-53
2022/04/24 01:49:14;;;;;;;;;;;;;;;;;;1037253;28;3751;-53
2022/04/24 01:49:57;;;;;;;;;;;;;;;;;;1034997;28;3890;-49
2022/04/24 01:50:35;;;;;;;;;;;;;;;;;;1036632;28;3526;-53
2022/04/24 01:51:06;;;;;;;;;;;;;;;;;;1035856;28;3908;-50
2022/04/24 01:51:37;;;;;;;;;;;;;;;;;;1036860;28;3364;-49
2022/04/24 01:52:07;;;;;;;;;;;;;;;;;;1040438;28;5772;-51
2022/04/24 01:52:38;;;;;;;;;;;;;;;;;;1043854;28;3905;-50
2022/04/24 01:53:08;;;;;;;;;;;;;;;;;;1044579;28;4033;-54
2022/04/24 01:53:39;;;;;;;;;;;;;;;;;;1043870;28;4595;-52
2022/04/24 01:54:09;;;;;;;;;;;;;;;;;;1036504;28;3570;-52
2022/04/24 01:54:39;;;;;;;;;;;;;;;;;;1036281;28;4408;-50
2022/04/24 01:55:10;;;;;;;;;;;;;;;;;;1036162;28;3762;-52
2022/04/24 01:55:40;;;;;;;;;;;;;;;;;;1035607;28;4548;-49
2022/04/24 01:56:11;;;;;;;;;;;;;;;;;;1037935;28;3481;-54
2022/04/24 01:56:41;;;;;;;;;;;;;;;;;;1033570;28;3953;-50
2022/04/24 01:57:11;;;;;;;;;;;;;;;;;;1034077;28;3487;-49
2022/04/24 01:57:42;;;;;;;;;;;;;;;;;;1034217;28;4630;-49
2022/04/24 01:58:12;;;;;;;;;;;;;;;;;;1036511;28;4131;-48
2022/04/24 01:58:42;;;;;;;;;;;;;;;;;;1035757;28;4113;-50
2022/04/24 01:59:12;;;;;;;;;;;;;;;;;;1034323;28;3377;-51
2022/04/24 01:59:43;;;;;;;;;;;;;;;;;;1032497;28;4674;-53
2022/04/24 02:00:13;;;;;;;;;;;;;;;;;;1033254;28;3751;-51
2022/04/24 02:00:43;;;;;;;;;;;;;;;;;;1036777;28;3771;-51
2022/04/24 02:01:14;;;;;;;;;;;;;;;;;;1036330;28;3540;-50
2022/04/24 02:01:44;;;;;;;;;;;;;;;;;;1034204;28;3962;-50
2022/04/24 02:02:14;;;;;;;;;;;;;;;;;;1036868;28;3394;-51
2022/04/24 02:02:46;;;;;;;;;;;;;;;;;;1033387;28;3924;-53
2022/04/24 02:03:16;;;;;;;;;;;;;;;;;;1035896;28;3532;-52
2022/04/24 02:03:46;;;;;;;;;;;;;;;;;;1035517;28;3854;-52
2022/04/24 02:04:22;;;;;;;;;;;;;;;;;;1037037;28;3402;-52
2022/04/24 02:04:53;;;;;;;;;;;;;;;;;;1033611;28;3895;-51
2022/04/24 02:05:23;;;;;;;;;;;;;;;;;;1034833;28;3510;-52
2022/04/24 02:05:53;;;;;;;;;;;;;;;;;;1034232;28;4878;-49
2022/04/24 02:06:24;;;;;;;;;;;;;;;;;;1035586;28;3330;-51
2022/04/24 02:06:54;;;;;;;;;;;;;;;;;;1036198;28;4217;-51
2022/04/24 02:07:24;;;;;;;;;;;;;;;;;;1035796;28;3860;-52
2022/04/24 02:07:55;;;;;;;;;;;;;;;;;;1035343;28;3929;-50
2022/04/24 02:08:27;;;;;;;;;;;;;;;;;;1035969;28;3972;-48
2022/04/24 02:08:57;;;;;;;;;;;;;;;;;;1036500;28;3927;-49
2022/04/24 02:09:27;;;;;;;;;;;;;;;;;;1036196;28;3670;-50
2022/04/24 02:09:57;;;;;;;;;;;;;;;;;;1035711;28;3888;-51
2022/04/24 02:10:28;;;;;;;;;;;;;;;;;;1036246;28;4181;-53
2022/04/24 02:10:58;;;;;;;;;;;;;;;;;;1035445;28;4199;-50
2022/04/24 02:11:29;;;;;;;;;;;;;;;;;;1037002;28;3983;-51
2022/04/24 02:11:59;;;;;;;;;;;;;;;;;;1036518;28;3961;-49
2022/04/24 02:12:30;;;;;;;;;;;;;;;;;;1037591;28;3350;-53
2022/04/24 02:13:00;;;;;;;;;;;;;;;;;;1037100;28;4030;-52
2022/04/24 02:13:30;;;;;;;;;;;;;;;;;;1038224;28;3397;-49
2022/04/24 02:14:01;;;;;;;;;;;;;;;;;;1035890;28;4507;-53
2022/04/24 02:14:31;;;;;;;;;;;;;;;;;;1037297;28;3557;-50
2022/04/24 02:15:01;;;;;;;;;;;;;;;;;;1035129;28;4646;-51
2022/04/24 02:15:32;;;;;;;;;;;;;;;;;;1035872;28;3311;-50
2022/04/24 02:16:03;;;;;;;;;;;;;;;;;;1036146;28;3931;-53
2022/04/24 02:16:33;;;;;;;;;;;;;;;;;;1036192;28;3528;-49
2022/04/24 02:17:03;;;;;;;;;;;;;;;;;;1035231;28;4045;-52
2022/04/24 02:17:34;;;;;;;;;;;;;;;;;;1035753;28;3484;-49
2022/04/24 02:18:04;;;;;;;;;;;;;;;;;;1035486;28;3949;-52
2022/04/24 02:18:34;;;;;;;;;;;;;;;;;;1036626;28;3508;-48
2022/04/24 02:19:05;;;;;;;;;;;;;;;;;;1035990;28;4159;-52
2022/04/24 02:19:35;;;;;;;;;;;;;;;;;;1036308;28;3844;-48
2022/04/24 02:20:05;;;;;;;;;;;;;;;;;;1034227;28;3904;-50
2022/04/24 02:20:35;;;;;;;;;;;;;;;;;;1037118;28;3426;-49
2022/04/24 02:21:06;;;;;;;;;;;;;;;;;;1036041;28;3741;-52
2022/04/24 02:21:36;;;;;;;;;;;;;;;;;;1033787;28;3813;-52
2022/04/24 02:22:06;;;;;;;;;;;;;;;;;;1031404;28;4144;-52
2022/04/24 02:22:37;;;;;;;;;;;;;;;;;;1035948;28;3515;-51
2022/04/24 02:23:08;;;;;;;;;;;;;;;;;;1034808;28;3947;-48
2022/04/24 02:23:38;;;;;;;;;;;;;;;;;;1035926;28;3958;-47
2022/04/24 02:24:09;;;;;;;;;;;;;;;;;;1037355;28;3384;-50
2022/04/24 02:24:39;;;;;;;;;;;;;;;;;;1039198;28;4594;-53
2022/04/24 02:25:10;;;;;;;;;;;;;;;;;;1036611;28;3623;-54
2022/04/24 02:25:40;;;;;;;;;;;;;;;;;;1036276;28;3956;-52
2022/04/24 02:26:10;;;;;;;;;;;;;;;;;;1035386;28;3820;-48
2022/04/24 02:26:41;;;;;;;;;;;;;;;;;;1035305;28;4170;-50
2022/04/24 02:27:11;;;;;;;;;;;;;;;;;;1036615;28;3944;-52
2022/04/24 02:27:41;;;;;;;;;;;;;;;;;;1036366;28;4495;-51
2022/04/24 02:28:12;;;;;;;;;;;;;;;;;;1036673;28;3313;-50
2022/04/24 02:28:42;;;;;;;;;;;;;;;;;;1036267;28;4551;-47
2022/04/24 02:29:12;;;;;;;;;;;;;;;;;;1035716;28;4427;-49
2022/04/24 02:29:42;;;;;;;;;;;;;;;;;;1036226;28;4250;-51
2022/04/24 02:30:13;;;;;;;;;;;;;;;;;;1036229;28;3652;-50
2022/04/24 02:30:43;;;;;;;;;;;;;;;;;;1033781;28;6770;-50
2022/04/24 02:31:13;;;;;;;;;;;;;;;;;;1034968;28;3818;-49
2022/04/24 02:31:43;;;;;;;;;;;;;;;;;;1035887;28;4014;-52
2022/04/24 02:32:14;;;;;;;;;;;;;;;;;;1034926;28;3871;-51
2022/04/24 02:32:44;;;;;;;;;;;;;;;;;;1035837;28;4244;-49
2022/04/24 02:33:14;;;;;;;;;;;;;;;;;;1031924;28;3571;-50
2022/04/24 02:33:44;;;;;;;;;;;;;;;;;;1033332;28;4357;-52
2022/04/24 02:34:15;;;;;;;;;;;;;;;;;;1036208;28;3792;-51
2022/04/24 02:34:46;;;;;;;;;;;;;;;;;;1033473;28;4071;-49
2022/04/24 02:35:17;;;;;;;;;;;;;;;;;;1035553;28;3739;-52
2022/04/24 02:35:48;;;;;;;;;;;;;;;;;;1032943;28;4272;-52
2022/04/24 02:36:18;;;;;;;;;;;;;;;;;;1033618;28;5343;-51
2022/04/24 02:36:48;;;;;;;;;;;;;;;;;;1033380;28;4476;-50
2022/04/24 02:37:19;;;;;;;;;;;;;;;;;;1036715;28;3462;-48
2022/04/24 02:37:49;;;;;;;;;;;;;;;;;;1036183;28;4574;-49
2022/04/24 02:38:19;;;;;;;;;;;;;;;;;;1035239;28;3473;-52
2022/04/24 02:38:50;;;;;;;;;;;;;;;;;;1036048;28;3879;-51
2022/04/24 02:39:20;;;;;;;;;;;;;;;;;;1035253;28;3528;-53
2022/04/24 02:39:56;;;;;;;;;;;;;;;;;;1035961;28;4697;-50
2022/04/24 02:40:27;;;;;;;;;;;;;;;;;;1035789;28;3818;-50
2022/04/24 02:40:58;;;;;;;;;;;;;;;;;;1035314;28;4070;-47
2022/04/24 02:41:29;;;;;;;;;;;;;;;;;;1035979;28;3438;-53
2022/04/24 02:42:00;;;;;;;;;;;;;;;;;;1035858;28;4023;-51
2022/04/24 02:42:30;;;;;;;;;;;;;;;;;;1037127;28;3464;-54
2022/04/24 02:43:00;;;;;;;;;;;;;;;;;;1037309;28;4013;-51
2022/04/24 02:43:30;;;;;;;;;;;;;;;;;;1036556;28;3411;-49
2022/04/24 02:44:01;;;;;;;;;;;;;;;;;;1037188;28;3761;-50
2022/04/24 02:44:31;;;;;;;;;;;;;;;;;;1036715;28;3644;-51
2022/04/24 02:45:01;;;;;;;;;;;;;;;;;;1044283;28;4735;-50
2022/04/24 02:45:32;;;;;;;;;;;;;;;;;;1040551;28;3543;-49
2022/04/24 02:46:02;;;;;;;;;;;;;;;;;;1039489;28;4073;-51
2022/04/24 02:46:38;;;;;;;;;;;;;;;;;;1039466;28;3882;-50
2022/04/24 02:47:09;;;;;;;;;;;;;;;;;;1035109;28;4095;-47
2022/04/24 02:47:40;;;;;;;;;;;;;;;;;;1036238;28;4273;-50
2022/04/24 02:48:11;;;;;;;;;;;;;;;;;;1036490;28;3719;-49
2022/04/24 02:48:41;;;;;;;;;;;;;;;;;;1037576;28;3811;-50
2022/04/24 02:49:12;;;;;;;;;;;;;;;;;;1032552;28;3446;-51
2022/04/24 02:49:56;;;;;;;;;;;;;;;;;;1036032;28;4552;-52
2022/04/24 02:50:34;;;;;;;;;;;;;;;;;;1036736;28;3331;-50
2022/04/24 02:51:04;;;;;;;;;;;;;;;;;;1035619;28;4046;-49
2022/04/24 02:51:35;;;;;;;;;;;;;;;;;;1037083;28;3394;-50
2022/04/24 02:52:05;;;;;;;;;;;;;;;;;;1035681;28;3967;-52
2022/04/24 02:52:45;;;;;;;;;;;;;;;;;;1036800;28;3446;-47
2022/04/24 02:53:16;;;;;;;;;;;;;;;;;;1034599;28;3671;-50
2022/04/24 02:53:46;;;;;;;;;;;;;;;;;;1036405;28;3999;-50
2022/04/24 02:54:16;;;;;;;;;;;;;;;;;;1036650;28;6083;-52
2022/04/24 02:54:47;;;;;;;;;;;;;;;;;;1036116;28;3879;-53
2022/04/24 02:55:17;;;;;;;;;;;;;;;;;;1036273;28;3845;-53
2022/04/24 02:55:48;;;;;;;;;;;;;;;;;;1034337;28;4530;-51
2022/04/24 02:56:18;;;;;;;;;;;;;;;;;;1036901;28;3473;-50
2022/04/24 02:56:49;;;;;;;;;;;;;;;;;;1034064;28;3884;-49
2022/04/24 02:57:20;;;;;;;;;;;;;;;;;;1036161;28;3630;-53
2022/04/24 02:57:50;;;;;;;;;;;;;;;;;;1034559;28;3897;-52
2022/04/24 02:58:21;;;;;;;;;;;;;;;;;;1036562;28;3587;-48
2022/04/24 02:58:52;;;;;;;;;;;;;;;;;;1033869;28;4267;-50
2022/04/24 02:59:25;;;;;;;;;;;;;;;;;;1035185;28;3447;-51
2022/04/24 02:59:55;;;;;;;;;;;;;;;;;;1033600;28;3863;-51
2022/04/24 03:00:39;;;;;;;;;;;;;;;;;;1034704;28;3747;-53
2022/04/24 03:01:09;;;;;;;;;;;;;;;;;;1034813;28;6611;-49
2022/04/24 03:01:40;;;;;;;;;;;;;;;;;;1034275;28;3920;-53
2022/04/24 03:02:12;;;;;;;;;;;;;;;;;;1036281;28;3521;-49
2022/04/24 03:02:43;;;;;;;;;;;;;;;;;;1034426;28;3990;-53
2022/04/24 03:03:14;;;;;;;;;;;;;;;;;;1040562;28;3974;-49
2022/04/24 03:03:45;;;;;;;;;;;;;;;;;;1039114;28;3899;-51
2022/04/24 03:04:15;;;;;;;;;;;;;;;;;;1039535;28;4899;-50
2022/04/24 03:04:45;;;;;;;;;;;;;;;;;;1040482;28;4050;-50
2022/04/24 03:05:17;;;;;;;;;;;;;;;;;;1035673;28;3400;-54
2022/04/24 03:05:49;;;;;;;;;;;;;;;;;;1035481;28;3877;-51
2022/04/24 03:06:19;;;;;;;;;;;;;;;;;;1035135;28;3842;-50
2022/04/24 03:06:50;;;;;;;;;;;;;;;;;;1036621;28;4046;-51
2022/04/24 03:07:20;;;;;;;;;;;;;;;;;;1036510;28;3533;-54
2022/04/24 03:07:51;;;;;;;;;;;;;;;;;;1036006;28;3923;-50
2022/04/24 03:08:22;;;;;;;;;;;;;;;;;;1036363;28;5206;-50
2022/04/24 03:08:52;;;;;;;;;;;;;;;;;;1036193;28;3811;-48
2022/04/24 03:09:22;;;;;;;;;;;;;;;;;;1037270;28;3464;-50
2022/04/24 03:09:52;;;;;;;;;;;;;;;;;;1038496;28;3929;-53
2022/04/24 03:10:23;;;;;;;;;;;;;;;;;;1039927;28;3437;-51
2022/04/24 03:10:53;;;;;;;;;;;;;;;;;;1038302;28;4458;-51
2022/04/24 03:11:23;;;;;;;;;;;;;;;;;;1038997;28;3506;-52
2022/04/24 03:11:53;;;;;;;;;;;;;;;;;;1035893;28;3962;-51
2022/04/24 03:12:23;;;;;;;;;;;;;;;;;;1036264;28;3528;-49
2022/04/24 03:12:54;;;;;;;;;;;;;;;;;;1036337;28;5552;-48
2022/04/24 03:13:24;;;;;;;;;;;;;;;;;;1036065;28;3618;-47
2022/04/24 03:13:54;;;;;;;;;;;;;;;;;;1036136;28;3897;-49
2022/04/24 03:14:25;;;;;;;;;;;;;;;;;;1035739;28;3851;-48
2022/04/24 03:14:55;;;;;;;;;;;;;;;;;;1036326;28;3875;-53
2022/04/24 03:15:26;;;;;;;;;;;;;;;;;;1035254;28;3489;-52
2022/04/24 03:15:56;;;;;;;;;;;;;;;;;;1036926;28;3810;-49
2022/04/24 03:16:27;;;;;;;;;;;;;;;;;;1032376;28;3421;-52
2022/04/24 03:16:57;;;;;;;;;;;;;;;;;;1031472;28;3773;-53
2022/04/24 03:17:29;;;;;;;;;;;;;;;;;;1032959;28;3396;-52
2022/04/24 03:17:59;;;;;;;;;;;;;;;;;;1035317;28;4028;-51
2022/04/24 03:18:30;;;;;;;;;;;;;;;;;;1036070;28;4626;-52
2022/04/24 03:19:00;;;;;;;;;;;;;;;;;;1034832;28;4400;-53
2022/04/24 03:19:30;;;;;;;;;;;;;;;;;;1035925;28;3376;-50
2022/04/24 03:20:03;;;;;;;;;;;;;;;;;;1035002;28;3935;-50
2022/04/24 03:20:34;;;;;;;;;;;;;;;;;;1035835;28;3434;-50
2022/04/24 03:21:04;;;;;;;;;;;;;;;;;;1035215;28;3868;-51
2022/04/24 03:21:34;;;;;;;;;;;;;;;;;;1034365;28;3596;-51
2022/04/24 03:22:05;;;;;;;;;;;;;;;;;;1035730;28;4172;-49
2022/04/24 03:22:35;;;;;;;;;;;;;;;;;;1035480;28;3429;-50
2022/04/24 03:23:06;;;;;;;;;;;;;;;;;;1035831;28;4303;-48
2022/04/24 03:23:36;;;;;;;;;;;;;;;;;;1037561;28;3564;-53
2022/04/24 03:24:06;;;;;;;;;;;;;;;;;;1037056;28;4361;-51
2022/04/24 03:24:37;;;;;;;;;;;;;;;;;;1037968;28;3523;-53
2022/04/24 03:25:09;;;;;;;;;;;;;;;;;;1035595;28;3729;-47
2022/04/24 03:25:39;;;;;;;;;;;;;;;;;;1036399;28;3860;-53
2022/04/24 03:26:13;;;;;;;;;;;;;;;;;;1035547;28;3515;-51
2022/04/24 03:26:43;;;;;;;;;;;;;;;;;;1036930;28;4119;-49
2022/04/24 03:27:14;;;;;;;;;;;;;;;;;;1037406;28;3754;-47
2022/04/24 03:27:44;;;;;;;;;;;;;;;;;;1035737;28;4261;-49
2022/04/24 03:28:14;;;;;;;;;;;;;;;;;;1036639;28;3716;-51
2022/04/24 03:28:45;;;;;;;;;;;;;;;;;;1036762;28;4056;-52
2022/04/24 03:29:15;;;;;;;;;;;;;;;;;;1036911;28;3444;-53
2022/04/24 03:29:47;;;;;;;;;;;;;;;;;;1036120;28;3925;-50
2022/04/24 03:30:24;;;;;;;;;;;;;;;;;;1037653;28;3621;-50
2022/04/24 03:30:54;;;;;;;;;;;;;;;;;;1038111;28;4070;-47
2022/04/24 03:31:24;;;;;;;;;;;;;;;;;;1037133;28;3642;-50
2022/04/24 03:31:54;;;;;;;;;;;;;;;;;;1037714;28;3769;-49
2022/04/24 03:32:25;;;;;;;;;;;;;;;;;;1039354;28;3372;-48
2022/04/24 03:32:55;;;;;;;;;;;;;;;;;;1040425;28;3872;-52
2022/04/24 03:33:25;;;;;;;;;;;;;;;;;;1037367;28;5693;-48
2022/04/24 03:33:55;;;;;;;;;;;;;;;;;;1036829;28;3858;-52
2022/04/24 03:34:26;;;;;;;;;;;;;;;;;;1036488;28;3418;-51
2022/04/24 03:34:57;;;;;;;;;;;;;;;;;;1036370;28;3975;-50